createdAt,value
2022-09-17T00:01:40.469Z,93.89
2022-09-17T00:04:09.165Z,93.92
2022-09-17T00:06:38.900Z,93.93
2022-09-17T00:09:08.852Z,93.98
2022-09-17T00:11:38.785Z,93.91
2022-09-17T00:14:09.295Z,93.84
2022-09-17T00:16:39.838Z,93.84
2022-09-17T00:19:11.308Z,93.81
2022-09-17T00:21:41.265Z,93.77
2022-09-17T00:24:13.904Z,93.78
2022-09-17T00:26:43.186Z,93.79
2022-09-17T00:29:11.983Z,93.80
2022-09-17T00:31:40.689Z,93.82
2022-09-17T00:34:09.321Z,93.82
2022-09-17T00:36:38.357Z,93.76
2022-09-17T00:39:11.542Z,93.80
2022-09-17T00:41:43.151Z,93.82
2022-09-17T00:44:44.451Z,93.76
2022-09-17T00:47:17.920Z,93.71
2022-09-17T00:49:46.978Z,93.74
2022-09-17T00:52:20.103Z,93.64
2022-09-17T00:54:55.750Z,93.57
2022-09-17T00:57:24.415Z,93.54
2022-09-17T00:59:52.752Z,93.52
2022-09-17T01:02:24.087Z,93.46
2022-09-17T01:04:53.181Z,93.40
2022-09-17T01:07:36.667Z,93.36
2022-09-17T01:10:15.618Z,93.32
2022-09-17T01:13:00.473Z,93.29
2022-09-17T01:15:33.980Z,93.22
2022-09-17T01:18:14.039Z,93.28
2022-09-17T01:21:10.453Z,93.22
2022-09-17T01:24:29.029Z,93.24
2022-09-17T01:27:42.456Z,93.23
2022-09-17T01:30:22.064Z,93.26
2022-09-17T01:32:57.508Z,93.18
2022-09-17T01:35:34.559Z,93.26
2022-09-17T01:38:06.606Z,93.14
2022-09-17T01:40:39.740Z,93.01
2022-09-17T01:43:12.442Z,92.97
2022-09-17T01:45:43.231Z,92.92
2022-09-17T01:48:18.751Z,93.01
2022-09-17T01:50:51.793Z,92.94
2022-09-17T01:53:22.877Z,93.04
2022-09-17T01:55:53.316Z,93.00
2022-09-17T01:58:25.082Z,93.02
2022-09-17T02:00:56.081Z,92.99
2022-09-17T02:03:30.509Z,92.86
2022-09-17T02:06:02.134Z,92.82
2022-09-17T02:08:33.187Z,92.82
2022-09-17T02:11:04.788Z,92.75
2022-09-17T02:13:36.072Z,92.61
2022-09-17T02:16:08.079Z,92.59
2022-09-17T02:18:41.287Z,92.64
2022-09-17T02:21:14.760Z,92.63
2022-09-17T02:23:48.371Z,92.45
2022-09-17T02:26:20.227Z,92.46
2022-09-17T02:28:52.219Z,92.45
2022-09-17T02:31:20.803Z,92.40
2022-09-17T02:33:54.000Z,92.27
2022-09-17T02:36:24.086Z,92.12
2022-09-17T02:38:58.849Z,91.99
2022-09-17T02:41:37.311Z,91.88
2022-09-17T02:44:12.166Z,91.71
2022-09-17T02:46:52.660Z,91.60
2022-09-17T02:49:32.481Z,91.55
2022-09-17T02:52:09.210Z,91.47
2022-09-17T02:54:43.810Z,91.41
2022-09-17T02:57:17.557Z,91.32
2022-09-17T02:59:54.857Z,91.19
2022-09-17T03:02:25.864Z,91.30
2022-09-17T03:04:56.845Z,91.23
2022-09-17T03:07:29.309Z,91.36
2022-09-17T03:09:58.046Z,91.26
2022-09-17T03:12:26.972Z,91.21
2022-09-17T03:14:57.400Z,91.15
2022-09-17T03:17:25.782Z,91.19
2022-09-17T03:19:55.599Z,91.28
2022-09-17T03:22:23.865Z,91.30
2022-09-17T03:24:51.888Z,91.31
2022-09-17T03:27:20.995Z,91.33
2022-09-17T03:29:49.391Z,91.35
2022-09-17T03:32:17.628Z,91.41
2022-09-17T03:34:47.002Z,91.40
2022-09-17T03:37:17.349Z,91.44
2022-09-17T03:39:46.557Z,91.43
2022-09-17T03:42:15.663Z,91.36
2022-09-17T03:44:45.490Z,91.40
2022-09-17T03:47:16.822Z,91.41
2022-09-17T03:49:45.399Z,91.39
2022-09-17T03:52:14.907Z,91.40
2022-09-17T03:54:45.295Z,91.31
2022-09-17T03:57:13.722Z,91.31
2022-09-17T03:59:42.446Z,91.33
2022-09-17T04:02:10.849Z,91.39
2022-09-17T04:04:40.369Z,91.54
2022-09-17T04:07:08.947Z,91.51
2022-09-17T04:09:37.285Z,91.53
2022-09-17T04:12:07.461Z,91.72
2022-09-17T04:14:35.812Z,91.68
2022-09-17T04:17:04.050Z,91.77
2022-09-17T04:19:32.514Z,91.74
2022-09-17T04:22:01.374Z,91.83
2022-09-17T04:24:30.526Z,91.84
2022-09-17T04:26:58.927Z,91.83
2022-09-17T04:29:28.697Z,91.88
2022-09-17T04:31:57.085Z,91.84
2022-09-17T04:34:25.375Z,91.84
2022-09-17T04:36:53.821Z,91.90
2022-09-17T04:39:23.841Z,92.01
2022-09-17T04:41:53.392Z,92.04
2022-09-17T04:44:21.733Z,92.05
2022-09-17T04:46:51.561Z,92.10
2022-09-17T04:49:20.368Z,92.12
2022-09-17T04:51:49.186Z,92.25
2022-09-17T04:54:17.786Z,92.27
2022-09-17T04:56:47.210Z,92.29
2022-09-17T04:59:17.893Z,92.35
2022-09-17T05:01:46.270Z,92.46
2022-09-17T05:04:17.266Z,92.58
2022-09-17T05:06:45.566Z,92.77
2022-09-17T05:09:14.838Z,92.99
2022-09-17T05:11:43.139Z,93.19
2022-09-17T05:14:11.268Z,93.45
2022-09-17T05:16:39.585Z,93.64
2022-09-17T05:19:09.916Z,93.75
2022-09-17T05:21:40.294Z,93.94
2022-09-17T05:24:09.805Z,94.08
2022-09-17T05:26:38.327Z,94.16
2022-09-17T05:29:07.340Z,94.29
2022-09-17T05:31:39.504Z,94.41
2022-09-17T05:34:07.966Z,94.58
2022-09-17T05:36:36.678Z,94.62
2022-09-17T05:39:06.317Z,94.68
2022-09-17T05:41:35.316Z,94.71
2022-09-17T05:44:03.961Z,94.77
2022-09-17T05:46:32.103Z,94.84
2022-09-17T05:49:00.941Z,94.97
2022-09-17T05:51:30.127Z,95.01
2022-09-17T05:53:58.214Z,94.93
2022-09-17T05:56:28.023Z,94.95
2022-09-17T05:58:57.007Z,94.99
2022-09-17T06:01:25.708Z,95.00
2022-09-17T06:03:54.379Z,95.04
2022-09-17T06:06:22.641Z,94.95
2022-09-17T06:08:52.779Z,94.94
2022-09-17T06:11:20.927Z,94.94
2022-09-17T06:13:54.644Z,94.88
2022-09-17T06:16:23.348Z,94.87
2022-09-17T06:18:53.068Z,94.83
2022-09-17T06:21:23.117Z,94.77
2022-09-17T06:23:51.770Z,94.76
2022-09-17T06:26:20.213Z,94.64
2022-09-17T06:28:48.336Z,94.43
2022-09-17T06:31:18.082Z,93.96
2022-09-17T06:33:48.608Z,93.73
2022-09-17T06:36:16.826Z,93.66
2022-09-17T06:38:45.223Z,93.76
2022-09-17T06:41:14.678Z,92.86
2022-09-17T06:43:42.981Z,92.52
2022-09-17T06:46:11.761Z,91.49
2022-09-17T06:48:42.594Z,89.77
2022-09-17T06:51:12.193Z,88.41
2022-09-17T06:53:41.706Z,87.38
2022-09-17T06:56:10.846Z,87.26
2022-09-17T06:58:42.640Z,86.61
2022-09-17T07:01:13.738Z,86.09
2022-09-17T07:03:45.633Z,85.44
2022-09-17T07:06:14.904Z,84.62
2022-09-17T07:08:43.820Z,82.88
2022-09-17T07:11:12.400Z,83.31
2022-09-17T07:13:41.413Z,82.75
2022-09-17T07:16:12.509Z,83.22
2022-09-17T07:18:41.039Z,83.13
2022-09-17T07:21:16.208Z,82.88
2022-09-17T07:23:46.070Z,81.93
2022-09-17T07:26:16.822Z,82.24
2022-09-17T07:28:45.718Z,82.44
2022-09-17T07:31:16.722Z,83.28
2022-09-17T07:33:47.131Z,81.51
2022-09-17T07:36:18.292Z,80.67
2022-09-17T07:38:48.959Z,80.78
2022-09-17T07:41:18.905Z,81.59
2022-09-17T07:43:49.573Z,81.27
2022-09-17T07:46:21.112Z,80.61
2022-09-17T07:48:50.739Z,80.84
2022-09-17T07:51:21.961Z,80.53
2022-09-17T07:53:53.008Z,81.85
2022-09-17T07:56:21.626Z,81.13
2022-09-17T07:58:53.364Z,80.21
2022-09-17T08:01:23.044Z,80.61
2022-09-17T08:03:53.387Z,79.89
2022-09-17T08:06:29.055Z,79.93
2022-09-17T08:08:58.040Z,79.76
2022-09-17T08:11:51.674Z,79.38
2022-09-17T08:14:17.270Z,78.96
2022-09-17T08:16:47.619Z,79.27
2022-09-17T08:19:16.264Z,78.93
2022-09-17T08:21:46.269Z,78.45
2022-09-17T08:24:14.515Z,77.76
2022-09-17T08:26:43.102Z,77.99
2022-09-17T08:29:12.247Z,78.33
2022-09-17T08:31:41.879Z,78.05
2022-09-17T08:34:13.137Z,78.17
2022-09-17T08:36:41.309Z,78.35
2022-09-17T08:39:12.161Z,77.11
2022-09-17T08:41:52.512Z,75.34
2022-09-17T08:44:25.983Z,74.91
2022-09-17T08:47:00.586Z,74.53
2022-09-17T08:49:36.414Z,74.12
2022-09-17T08:52:34.820Z,72.51
2022-09-17T08:55:11.512Z,72.03
2022-09-17T08:57:44.054Z,70.91
2022-09-17T09:00:13.269Z,71.19
2022-09-17T09:02:56.282Z,71.37
2022-09-17T09:05:27.117Z,71.20
2022-09-17T09:08:01.626Z,71.44
2022-09-17T09:10:37.961Z,69.41
2022-09-17T09:13:07.110Z,68.48
2022-09-17T09:15:39.827Z,67.28
2022-09-17T09:18:16.652Z,65.18
2022-09-17T09:20:51.581Z,63.46
2022-09-17T09:23:21.678Z,63.48
2022-09-17T09:25:56.704Z,62.57
2022-09-17T09:28:37.297Z,65.90
2022-09-17T09:31:17.862Z,63.33
2022-09-17T09:33:48.145Z,61.55
2022-09-17T09:36:22.360Z,62.19
2022-09-17T09:39:02.644Z,63.40
2022-09-17T09:41:38.903Z,65.36
2022-09-17T09:44:21.675Z,62.50
2022-09-17T09:47:07.185Z,61.90
2022-09-17T09:49:44.988Z,62.32
2022-09-17T09:52:24.183Z,61.07
2022-09-17T09:55:25.875Z,61.25
2022-09-17T09:58:01.874Z,63.29
2022-09-17T10:00:37.506Z,64.52
2022-09-17T10:03:12.075Z,63.52
2022-09-17T10:05:44.220Z,63.92
2022-09-17T10:08:16.766Z,64.52
2022-09-17T10:10:56.115Z,65.86
2022-09-17T10:13:31.084Z,63.56
2022-09-17T10:16:17.268Z,62.21
2022-09-17T10:18:47.505Z,63.95
2022-09-17T10:21:24.580Z,63.64
2022-09-17T10:23:54.575Z,62.21
2022-09-17T10:26:24.152Z,60.32
2022-09-17T10:28:55.711Z,60.81
2022-09-17T10:31:24.851Z,62.13
2022-09-17T10:33:59.999Z,63.96
2022-09-17T10:36:43.113Z,62.37
2022-09-17T10:39:31.503Z,62.56
2022-09-17T10:42:01.322Z,62.83
2022-09-17T10:44:33.262Z,62.71
2022-09-17T10:47:09.336Z,62.61
2022-09-17T10:49:41.558Z,62.09
2022-09-17T10:52:13.586Z,59.47
2022-09-17T10:55:05.211Z,59.12
2022-09-17T10:57:43.490Z,59.78
2022-09-17T11:00:20.035Z,60.96
2022-09-17T11:03:11.450Z,64.00
2022-09-17T11:05:51.525Z,63.93
2022-09-17T11:08:23.430Z,64.32
2022-09-17T11:10:55.758Z,66.59
2022-09-17T11:13:33.986Z,64.46
2022-09-17T11:16:21.660Z,64.73
2022-09-17T11:18:55.017Z,64.23
2022-09-17T11:21:36.566Z,63.28
2022-09-17T11:24:27.308Z,63.44
2022-09-17T11:26:59.705Z,65.95
2022-09-17T11:30:05.945Z,64.27
2022-09-17T11:32:45.835Z,63.78
2022-09-17T11:35:19.571Z,63.04
2022-09-17T11:37:51.427Z,61.33
2022-09-17T11:40:24.644Z,61.58
2022-09-17T11:42:55.420Z,63.36
2022-09-17T11:45:26.468Z,63.10
2022-09-17T11:48:00.762Z,62.34
2022-09-17T11:50:31.983Z,60.97
2022-09-17T11:53:06.457Z,59.90
2022-09-17T11:55:40.795Z,59.91
2022-09-17T11:58:15.565Z,59.29
2022-09-17T12:00:49.282Z,60.99
2022-09-17T12:03:26.497Z,60.20
2022-09-17T12:05:57.490Z,59.88
2022-09-17T12:08:28.990Z,60.54
2022-09-17T12:11:08.367Z,60.21
2022-09-17T12:13:39.810Z,60.41
2022-09-17T12:16:15.570Z,62.43
2022-09-17T12:18:56.626Z,62.51
2022-09-17T12:21:29.053Z,63.28
2022-09-17T12:24:00.464Z,62.19
2022-09-17T12:26:36.051Z,63.59
2022-09-17T12:29:07.711Z,62.57
2022-09-17T12:31:41.706Z,62.52
2022-09-17T12:34:26.789Z,62.41
2022-09-17T12:37:03.258Z,62.51
2022-09-17T12:40:01.521Z,57.62
2022-09-17T12:42:41.924Z,59.36
2022-09-17T12:45:36.574Z,58.84
2022-09-17T12:48:40.996Z,57.10
2022-09-17T12:51:28.492Z,57.76
2022-09-17T12:54:05.585Z,58.40
2022-09-17T12:56:46.751Z,58.95
2022-09-17T12:59:19.674Z,58.61
2022-09-17T13:01:55.416Z,55.86
2022-09-17T13:05:00.917Z,57.12
2022-09-17T13:08:03.540Z,59.30
2022-09-17T13:10:42.277Z,56.77
2022-09-17T13:13:26.110Z,57.17
2022-09-17T13:16:01.517Z,57.50
2022-09-17T13:18:35.776Z,56.39
2022-09-17T13:21:09.702Z,57.68
2022-09-17T13:23:44.313Z,58.05
2022-09-17T13:26:20.717Z,57.92
2022-09-17T13:28:50.567Z,57.42
2022-09-17T13:31:23.388Z,58.61
2022-09-17T13:34:08.877Z,56.48
2022-09-17T13:36:48.576Z,58.35
2022-09-17T13:39:47.709Z,56.16
2022-09-17T13:42:20.512Z,55.48
2022-09-17T13:44:52.110Z,56.50
2022-09-17T13:47:25.309Z,54.92
2022-09-17T13:49:59.726Z,54.78
2022-09-17T13:52:44.667Z,56.70
2022-09-17T13:55:36.571Z,54.68
2022-09-17T13:58:07.747Z,56.04
2022-09-17T14:00:57.963Z,56.01
2022-09-17T14:03:49.332Z,57.53
2022-09-17T14:06:59.650Z,57.85
2022-09-17T14:09:52.030Z,58.56
2022-09-17T14:12:56.984Z,59.16
2022-09-17T14:16:04.978Z,60.36
2022-09-17T14:19:00.749Z,61.55
2022-09-17T14:21:32.274Z,61.47
2022-09-17T14:24:04.485Z,61.94
2022-09-17T14:26:50.186Z,62.10
2022-09-17T14:29:32.196Z,62.61
2022-09-17T14:32:00.461Z,63.15
2022-09-17T14:34:29.692Z,63.16
2022-09-17T14:36:58.668Z,64.41
2022-09-17T14:39:30.242Z,65.39
2022-09-17T14:42:01.828Z,66.67
2022-09-17T14:44:37.597Z,66.17
2022-09-17T14:47:10.723Z,66.82
2022-09-17T14:49:40.873Z,66.80
2022-09-17T14:52:25.512Z,64.97
2022-09-17T14:55:17.801Z,64.02
2022-09-17T14:57:47.790Z,62.31
2022-09-17T15:00:23.744Z,62.55
2022-09-17T15:02:54.491Z,62.76
2022-09-17T15:05:26.682Z,62.99
2022-09-17T15:08:12.392Z,61.94
2022-09-17T15:10:48.965Z,62.41
2022-09-17T15:13:21.905Z,62.26
2022-09-17T15:16:16.049Z,63.17
2022-09-17T15:18:45.922Z,61.77
2022-09-17T15:21:24.631Z,62.34
2022-09-17T15:27:02.855Z,62.18
2022-09-17T15:29:32.141Z,62.60
2022-09-17T15:32:00.504Z,61.98
2022-09-17T15:34:31.237Z,63.15
2022-09-17T15:37:06.454Z,63.49
2022-09-17T15:39:41.513Z,63.24
2022-09-17T15:42:26.560Z,65.28
2022-09-17T15:45:07.943Z,64.26
2022-09-17T15:47:53.364Z,64.61
2022-09-17T15:50:25.004Z,64.42
2022-09-17T15:53:00.323Z,65.42
2022-09-17T15:55:38.411Z,64.58
2022-09-17T15:58:23.211Z,65.33
2022-09-17T16:01:33.371Z,65.73
2022-09-17T16:04:19.980Z,66.29
2022-09-17T16:06:58.663Z,66.36
2022-09-17T16:09:59.361Z,66.08
2022-09-17T16:12:31.982Z,66.65
2022-09-17T16:15:04.009Z,67.06
2022-09-17T16:17:36.556Z,66.65
2022-09-17T16:20:15.981Z,67.28
2022-09-17T16:22:48.053Z,66.78
2022-09-17T16:25:17.991Z,66.34
2022-09-17T16:27:49.890Z,66.87
2022-09-17T16:30:21.051Z,66.89
2022-09-17T16:32:53.739Z,66.54
2022-09-17T16:35:23.644Z,67.00
2022-09-17T16:37:53.372Z,67.25
2022-09-17T16:40:28.427Z,67.04
2022-09-17T16:43:01.762Z,67.48
2022-09-17T16:45:31.522Z,67.75
2022-09-17T16:48:00.076Z,67.58
2022-09-17T16:50:28.399Z,67.99
2022-09-17T16:53:00.432Z,68.43
2022-09-17T16:55:31.329Z,69.12
2022-09-17T16:58:02.722Z,69.38
2022-09-17T17:00:32.708Z,69.97
2022-09-17T17:03:02.626Z,70.99
2022-09-17T17:05:35.083Z,70.90
2022-09-17T17:08:07.948Z,71.45
2022-09-17T17:10:36.113Z,72.10
2022-09-17T17:13:06.622Z,72.78
2022-09-17T17:15:38.423Z,74.36
2022-09-17T17:18:07.037Z,75.09
2022-09-17T17:20:37.983Z,75.68
2022-09-17T17:23:06.767Z,76.15
2022-09-17T17:25:35.125Z,77.17
2022-09-17T17:28:05.709Z,77.77
2022-09-17T17:30:35.102Z,78.60
2022-09-17T17:33:05.450Z,78.90
2022-09-17T17:35:33.835Z,79.47
2022-09-17T17:38:04.358Z,79.46
2022-09-17T17:40:33.622Z,79.84
2022-09-17T17:43:07.089Z,79.95
2022-09-17T17:45:35.863Z,80.12
2022-09-17T17:48:05.649Z,80.25
2022-09-17T17:50:34.777Z,81.28
2022-09-17T17:53:03.300Z,82.99
2022-09-17T17:55:33.219Z,84.11
2022-09-17T17:58:02.240Z,85.10
2022-09-17T18:00:30.462Z,86.48
2022-09-17T18:02:59.190Z,87.32
2022-09-17T18:05:29.604Z,88.16
2022-09-17T18:07:58.184Z,88.81
2022-09-17T18:10:26.274Z,89.13
2022-09-17T18:12:55.637Z,89.36
2022-09-17T18:15:23.964Z,89.78
2022-09-17T18:17:57.142Z,90.24
2022-09-17T18:20:25.483Z,90.54
2022-09-17T18:22:55.962Z,90.78
2022-09-17T18:25:25.107Z,91.08
2022-09-17T18:27:53.479Z,91.24
2022-09-17T18:30:24.904Z,91.47
2022-09-17T18:32:53.133Z,91.64
2022-09-17T18:35:23.498Z,91.76
2022-09-17T18:37:54.448Z,92.03
2022-09-17T18:40:24.780Z,92.12
2022-09-17T18:42:54.028Z,92.31
2022-09-17T18:45:22.214Z,92.50
2022-09-17T18:47:50.219Z,92.74
2022-09-17T18:50:19.250Z,92.96
2022-09-17T18:52:47.529Z,93.09
2022-09-17T18:55:20.048Z,93.18
2022-09-17T18:57:54.270Z,93.33
2022-09-17T19:00:24.176Z,93.49
2022-09-17T19:02:52.727Z,93.56
2022-09-17T19:05:21.119Z,93.65
2022-09-17T19:07:49.513Z,93.69
2022-09-17T19:10:17.769Z,93.80
2022-09-17T19:12:46.956Z,93.87
2022-09-17T19:15:17.001Z,93.95
2022-09-17T19:17:46.954Z,94.00
2022-09-17T19:20:15.144Z,94.09
2022-09-17T19:22:43.694Z,94.12
2022-09-17T19:25:11.784Z,94.14
2022-09-17T19:27:39.906Z,94.23
2022-09-17T19:30:09.405Z,94.29
2022-09-17T19:32:43.382Z,94.27
2022-09-17T19:35:13.190Z,94.32
2022-09-17T19:37:41.510Z,94.39
2022-09-17T19:40:13.940Z,94.46
2022-09-17T19:42:41.965Z,94.52
2022-09-17T19:45:11.073Z,94.52
2022-09-17T19:47:40.934Z,94.55
2022-09-17T19:50:09.970Z,94.55
2022-09-17T19:52:38.236Z,94.60
2022-09-17T19:55:12.095Z,94.62
2022-09-17T19:57:41.003Z,94.64
2022-09-17T20:00:12.251Z,94.69
2022-09-17T20:02:41.853Z,94.71
2022-09-17T20:05:11.713Z,94.78
2022-09-17T20:07:40.178Z,94.75
2022-09-17T20:10:09.100Z,94.74
2022-09-17T20:12:42.285Z,94.73
2022-09-17T20:15:15.803Z,94.79
2022-09-17T20:17:46.226Z,94.78
2022-09-17T20:20:14.870Z,94.78
2022-09-17T20:22:43.166Z,94.76
2022-09-17T20:25:11.328Z,94.79
2022-09-17T20:27:41.164Z,94.85
2022-09-17T20:30:10.292Z,94.86
2022-09-17T20:32:39.068Z,94.89
2022-09-17T20:35:10.658Z,94.91
2022-09-17T20:40:27.687Z,94.97
2022-09-17T20:42:59.033Z,94.97
2022-09-17T20:45:27.100Z,95.03
2022-09-17T20:47:56.384Z,95.01
2022-09-17T20:50:26.646Z,95.00
2022-09-17T20:52:54.879Z,95.01
2022-09-17T20:55:23.371Z,94.98
2022-09-17T20:57:54.013Z,95.06
2022-09-17T21:00:28.805Z,95.05
2022-09-17T21:02:57.263Z,95.02
2022-09-17T21:05:30.045Z,94.99
2022-09-17T21:07:58.684Z,94.95
2022-09-17T21:10:26.659Z,94.85
2022-09-17T21:12:54.828Z,94.82
2022-09-17T21:15:23.381Z,94.79
2022-09-17T21:17:51.903Z,94.80
2022-09-17T21:20:20.580Z,94.94
2022-09-17T21:22:50.229Z,95.03
2022-09-17T21:25:19.728Z,95.15
2022-09-17T21:27:48.218Z,95.20
2022-09-17T21:30:19.271Z,95.26
2022-09-17T21:32:53.282Z,95.26
2022-09-17T21:35:29.956Z,95.27
2022-09-17T21:37:59.988Z,95.26
2022-09-17T21:40:28.149Z,95.33
2022-09-17T21:42:56.455Z,95.30
2022-09-17T21:45:24.850Z,95.34
2022-09-17T21:47:53.254Z,95.32
2022-09-17T21:50:22.120Z,95.32
2022-09-17T21:52:50.299Z,95.40
2022-09-17T21:55:20.001Z,95.39
2022-09-17T21:57:48.194Z,95.42
2022-09-17T22:00:22.626Z,95.44
2022-09-17T22:02:52.028Z,95.44
2022-09-17T22:05:21.560Z,95.49
2022-09-17T22:07:49.872Z,95.50
2022-09-17T22:10:18.487Z,95.53
2022-09-17T22:12:48.128Z,95.51
2022-09-17T22:15:18.941Z,95.52
2022-09-17T22:17:47.317Z,95.50
2022-09-17T22:20:16.154Z,95.53
2022-09-17T22:22:44.532Z,95.55
2022-09-17T22:25:15.366Z,95.56
2022-09-17T22:27:58.548Z,95.59
2022-09-17T22:30:36.298Z,95.62
2022-09-17T22:33:04.810Z,95.70
2022-09-17T22:35:34.377Z,95.66
2022-09-17T22:38:02.413Z,95.69
2022-09-17T22:40:30.495Z,95.76
2022-09-17T22:42:58.604Z,95.75
2022-09-17T22:45:27.064Z,95.78
2022-09-17T22:47:56.999Z,95.76
2022-09-17T22:50:25.539Z,95.86
2022-09-17T22:52:53.799Z,95.87
2022-09-17T22:55:22.196Z,95.90
2022-09-17T22:57:50.897Z,95.90
2022-09-17T23:00:20.493Z,96.00
2022-09-17T23:02:48.707Z,95.97
2022-09-17T23:05:20.856Z,95.98
2022-09-17T23:07:48.834Z,95.99
2022-09-17T23:10:19.830Z,96.05
2022-09-17T23:12:48.499Z,96.07
2022-09-17T23:15:21.272Z,96.07
2022-09-17T23:17:53.128Z,96.01
2022-09-17T23:20:22.887Z,96.04
2022-09-17T23:22:50.924Z,96.08
2022-09-17T23:25:20.802Z,96.09
2022-09-17T23:27:49.299Z,96.14
2022-09-17T23:30:17.749Z,96.11
2022-09-17T23:32:45.775Z,96.11
2022-09-17T23:35:14.691Z,96.12
2022-09-17T23:37:44.541Z,96.12
2022-09-17T23:40:13.882Z,96.08
2022-09-17T23:42:42.658Z,96.08
2022-09-17T23:45:11.620Z,96.03
2022-09-17T23:47:39.959Z,96.04
2022-09-17T23:50:09.199Z,96.07
2022-09-17T23:52:37.226Z,96.07
2022-09-17T23:55:08.368Z,96.08
2022-09-17T23:57:36.544Z,96.14
